Time;durP1;ratioP1;P1;durP2;ratioP2;P2;SDS_P1;SDS_P2;PMS_P1;PMS_P2;Temp;Humidity;BMP_temperature;BMP_pressure;BME280_temperature;BME280_humidity;BME280_pressure;Samples;Min_cycle;Max_cycle;Signal;HPM_P1;HPM_P2
2022/05/07 00:00:07;;;;;;;19.00;14.57;;;;;;;13.92;78.49;102206.47;5098852;28;20028;-68
2022/05/07 00:02:34;;;;;;;20.48;15.10;;;;;;;13.94;78.44;102210.84;5098803;28;20354;-66
2022/05/07 00:04:59;;;;;;;22.77;14.82;;;;;;;13.91;78.42;102207.34;5099156;28;20032;-66
2022/05/07 00:07:25;;;;;;;23.20;15.15;;;;;;;13.87;78.38;102201.22;5098341;28;20092;-66
2022/05/07 00:09:50;;;;;;;19.65;13.68;;;;;;;13.82;78.72;102195.13;5098620;28;20047;-65
2022/05/07 00:12:15;;;;;;;19.08;14.27;;;;;;;13.85;78.79;102197.72;5098920;28;20343;-66
2022/05/07 00:14:41;;;;;;;19.10;14.40;;;;;;;13.75;79.24;102190.75;5098408;28;20039;-66
2022/05/07 00:19:50;;;;;;;19.20;14.38;;;;;;;13.66;79.60;102190.81;5098426;28;20527;-66
2022/05/07 00:22:16;;;;;;;16.95;14.15;;;;;;;13.62;79.75;102185.56;5098336;28;20024;-66
2022/05/07 00:24:41;;;;;;;19.13;14.45;;;;;;;13.67;79.77;102195.22;5098326;28;20347;-66
2022/05/07 00:27:07;;;;;;;22.08;14.43;;;;;;;13.66;80.06;102188.19;5098150;28;20108;-67
2022/05/07 00:29:32;;;;;;;21.10;14.13;;;;;;;13.64;79.92;102189.09;5098377;28;20036;-66
2022/05/07 00:31:57;;;;;;;19.63;14.18;;;;;;;13.57;79.83;102180.31;5098006;28;20039;-66
2022/05/07 00:34:24;;;;;;;18.23;13.75;;;;;;;13.58;80.20;102190.84;5098394;28;20043;-65
2022/05/07 00:36:50;;;;;;;21.60;14.38;;;;;;;13.53;80.23;102181.22;5098180;28;20062;-64
2022/05/07 00:39:15;;;;;;;18.58;13.65;;;;;;;13.57;80.32;102190.84;5098075;28;20036;-65
2022/05/07 00:41:40;;;;;;;20.13;14.50;;;;;;;13.51;80.51;102188.22;5097827;28;20036;-65
2022/05/07 00:44:06;;;;;;;20.15;14.45;;;;;;;13.45;80.58;102181.25;5097792;28;20039;-66
2022/05/07 00:46:32;;;;;;;20.33;14.95;;;;;;;13.48;80.49;102181.25;5097803;28;20117;-65
2022/05/07 00:48:58;;;;;;;19.33;14.77;;;;;;;13.44;80.60;102179.50;5097846;28;20032;-66
2022/05/07 00:51:33;;;;;;;21.00;14.95;;;;;;;13.47;80.67;102174.25;5097875;28;20038;-67
2022/05/07 00:53:59;;;;;;;20.95;15.40;;;;;;;13.40;80.61;102169.88;5097838;28;20081;-65
2022/05/07 00:56:24;;;;;;;18.70;14.38;;;;;;;13.37;80.96;102166.38;5097289;28;20039;-64
2022/05/07 00:58:51;;;;;;;19.15;14.50;;;;;;;13.29;81.09;102166.44;5097200;28;20118;-65
2022/05/07 01:01:17;;;;;;;18.98;13.80;;;;;;;13.25;81.20;102164.69;5097572;28;20495;-65
2022/05/07 01:03:44;;;;;;;21.23;15.10;;;;;;;13.29;81.35;102170.81;5097471;28;20371;-66
2022/05/07 01:06:09;;;;;;;17.98;13.77;;;;;;;13.29;81.26;102170.81;5098363;28;20115;-64
2022/05/07 01:08:35;;;;;;;21.02;13.95;;;;;;;13.26;81.54;102176.06;5097497;28;20465;-65
2022/05/07 01:11:01;;;;;;;18.58;13.70;;;;;;;13.26;81.78;102168.19;5097349;28;20028;-66
2022/05/07 01:13:27;;;;;;;19.75;13.60;;;;;;;13.28;81.36;102169.94;5097495;28;20032;-64
2022/05/07 01:15:57;;;;;;;17.67;13.48;;;;;;;13.23;81.84;102169.06;5097296;28;20541;-66
2022/05/07 01:18:23;;;;;;;21.90;14.38;;;;;;;13.18;81.74;102160.31;5097324;28;20352;-65
2022/05/07 01:20:48;;;;;;;19.05;14.15;;;;;;;13.20;81.39;102167.31;5097150;28;20070;-66
2022/05/07 01:23:15;;;;;;;20.27;15.23;;;;;;;13.12;81.94;102171.69;5097125;28;20087;-65
2022/05/07 01:25:41;;;;;;;20.60;14.63;;;;;;;13.17;81.86;102156.81;5097130;28;20038;-66
2022/05/07 01:28:06;;;;;;;22.83;14.57;;;;;;;13.13;81.63;102159.44;5096839;28;20478;-66
2022/05/07 01:30:33;;;;;;;21.42;15.15;;;;;;;13.14;81.66;102161.19;5097285;28;20032;-67
2022/05/07 01:32:59;;;;;;;20.50;14.73;;;;;;;13.08;81.79;102148.94;5096834;28;20032;-65
2022/05/07 01:35:24;;;;;;;19.85;14.63;;;;;;;12.98;81.79;102151.59;5097110;28;20039;-66
2022/05/07 01:37:49;;;;;;;18.65;15.00;;;;;;;13.04;81.92;102155.06;5096867;28;20035;-67
2022/05/07 01:40:15;;;;;;;23.92;14.45;;;;;;;12.96;82.14;102150.72;5096975;28;20069;-65
2022/05/07 01:42:40;;;;;;;19.73;14.63;;;;;;;12.95;82.02;102151.59;5096649;28;20024;-65
2022/05/07 01:45:06;;;;;;;21.65;14.68;;;;;;;12.88;82.58;102150.72;5096871;28;20093;-64
2022/05/07 01:50:19;;;;;;;18.83;14.23;;;;;;;12.86;82.17;102150.72;5097226;28;20094;-65
2022/05/07 01:52:44;;;;;;;20.25;14.35;;;;;;;12.62;83.24;102147.28;5078310;28;20032;-65
2022/05/07 01:55:10;;;;;;;19.50;14.45;;;;;;;12.71;83.07;102156.00;5096459;28;20029;-65
2022/05/07 01:57:35;;;;;;;21.23;14.43;;;;;;;12.69;83.34;102147.25;5096582;28;20020;-63
2022/05/07 02:00:00;;;;;;;19.55;14.15;;;;;;;12.76;82.52;102141.13;5096580;28;20454;-64
2022/05/07 02:02:26;;;;;;;18.65;14.27;;;;;;;12.71;82.85;102156.00;5096410;28;20028;-64
2022/05/07 02:04:51;;;;;;;20.98;14.57;;;;;;;12.71;82.95;102145.50;5096719;28;20024;-63
2022/05/07 02:07:17;;;;;;;19.42;14.23;;;;;;;12.68;83.50;102142.88;5096185;28;20047;-65
2022/05/07 02:09:42;;;;;;;21.60;15.15;;;;;;;12.67;82.74;102142.88;5095354;28;20405;-66
2022/05/07 02:12:07;;;;;;;20.13;13.85;;;;;;;12.68;83.28;102139.38;5096216;28;20043;-65
2022/05/07 02:14:33;;;;;;;31.65;15.18;;;;;;;12.60;83.63;102134.16;5093013;28;20040;-64
2022/05/07 02:16:58;;;;;;;20.67;14.55;;;;;;;12.67;83.36;102140.25;5096097;28;20031;-65
2022/05/07 02:19:23;;;;;;;21.25;15.18;;;;;;;12.61;83.58;102135.91;5096112;28;20367;-65
2022/05/07 02:21:49;;;;;;;23.10;14.75;;;;;;;12.62;83.99;102140.28;5095797;28;20032;-67
2022/05/07 02:24:14;;;;;;;20.00;14.13;;;;;;;12.61;83.47;102135.03;5095685;28;20085;-65
2022/05/07 02:26:39;;;;;;;24.73;15.18;;;;;;;12.67;83.79;102137.63;5096212;28;20340;-64
2022/05/07 02:29:05;;;;;;;21.23;14.50;;;;;;;12.61;84.05;102138.53;5095911;28;20048;-65
2022/05/07 02:31:30;;;;;;;21.90;15.20;;;;;;;12.63;83.98;102133.28;5095902;28;20420;-65
2022/05/07 02:33:55;;;;;;;22.73;15.45;;;;;;;12.57;84.45;102128.88;5095466;28;20514;-64
2022/05/07 02:36:21;;;;;;;23.00;15.13;;;;;;;12.50;84.73;102122.75;5095638;28;20028;-65
2022/05/07 02:38:46;;;;;;;21.92;14.93;;;;;;;12.53;84.33;102116.63;5095251;28;20097;-64
2022/05/07 02:43:55;;;;;;;20.45;14.70;;;;;;;12.47;84.51;102111.38;5095969;28;20504;-67
2022/05/07 02:46:20;;;;;;;20.55;14.68;;;;;;;12.54;84.33;102126.25;5095535;28;20020;-64
2022/05/07 02:48:46;;;;;;;19.95;15.18;;;;;;;12.60;84.31;102122.78;5095381;28;20362;-65
2022/05/07 02:51:12;;;;;;;20.38;15.50;;;;;;;12.58;84.65;102120.13;5095197;28;20051;-65
2022/05/07 02:53:38;;;;;;;21.35;15.32;;;;;;;12.53;84.82;102128.00;5095273;28;20104;-60
2022/05/07 02:56:04;;;;;;;21.55;15.25;;;;;;;12.41;85.01;102107.03;5095300;28;20397;-65
2022/05/07 02:58:29;;;;;;;21.17;15.32;;;;;;;12.55;85.10;102122.75;5095381;28;20129;-65
2022/05/07 03:00:55;;;;;;;19.75;15.30;;;;;;;12.54;85.25;102113.13;5095566;28;20028;-64
2022/05/07 03:03:21;;;;;;;24.15;16.90;;;;;;;12.58;84.88;102119.25;5095409;28;20031;-65
2022/05/07 03:05:46;;;;;;;25.42;17.38;;;;;;;12.55;84.78;102117.50;5095495;28;20119;-64
2022/05/07 03:08:11;;;;;;;24.25;16.73;;;;;;;12.59;84.94;102116.63;5095338;28;20443;-66
2022/05/07 03:10:36;;;;;;;23.17;16.77;;;;;;;12.56;85.13;102116.63;5095029;28;20032;-64
2022/05/07 03:13:02;;;;;;;23.98;16.52;;;;;;;12.58;85.32;102114.88;5095372;28;20063;-64
2022/05/07 03:15:28;;;;;;;24.85;16.75;;;;;;;12.58;85.09;102107.00;5095274;28;20404;-65
2022/05/07 03:17:53;;;;;;;24.50;16.90;;;;;;;12.62;85.17;102110.50;5095303;28;20024;-65
2022/05/07 03:20:18;;;;;;;24.35;17.10;;;;;;;12.53;84.86;102093.00;5094599;28;20028;-66
2022/05/07 03:22:45;;;;;;;24.63;16.77;;;;;;;12.54;85.55;102123.63;5091545;28;20036;-64
2022/05/07 03:25:10;;;;;;;25.58;17.38;;;;;;;12.45;85.83;102111.41;5095116;28;20108;-65
2022/05/07 03:27:36;;;;;;;25.02;16.30;;;;;;;12.39;85.88;102107.91;5094713;28;20083;-65
2022/05/07 03:30:01;;;;;;;23.08;17.15;;;;;;;12.52;85.89;102112.25;5094987;28;20028;-64
2022/05/07 03:32:27;;;;;;;26.10;17.50;;;;;;;12.52;85.95;102114.88;5095134;28;20389;-65
2022/05/07 03:34:52;;;;;;;26.85;17.55;;;;;;;12.46;85.66;102113.16;5094801;28;20035;-64
2022/05/07 03:37:17;;;;;;;26.48;17.88;;;;;;;12.49;85.54;102115.75;5094963;28;20082;-65
2022/05/07 03:39:42;;;;;;;25.45;17.88;;;;;;;12.41;86.38;102111.41;5095013;28;20043;-64
2022/05/07 03:42:08;;;;;;;25.75;18.13;;;;;;;12.47;86.34;102121.88;5095026;28;20054;-65
2022/05/07 03:44:33;;;;;;;22.85;16.50;;;;;;;12.51;85.91;102121.88;5095069;28;20020;-65
2022/05/07 03:46:59;;;;;;;26.48;16.48;;;;;;;12.46;86.03;102117.53;5095125;28;20039;-65
2022/05/07 03:49:24;;;;;;;25.00;18.05;;;;;;;12.50;86.33;102130.63;5095067;28;20097;-65
2022/05/07 03:54:33;;;;;;;24.10;16.92;;;;;;;12.47;86.04;102130.63;5108570;28;20024;-64
2022/05/07 03:56:58;;;;;;;22.63;17.55;;;;;;;12.52;86.21;102130.63;5094721;28;20040;-66
2022/05/07 03:59:24;;;;;;;23.05;17.60;;;;;;;12.42;86.86;102127.16;5094722;28;20032;-64
2022/05/07 04:01:49;;;;;;;25.75;18.00;;;;;;;12.47;87.02;102127.13;5094466;28;20115;-64
2022/05/07 04:04:14;;;;;;;24.73;17.85;;;;;;;12.48;86.87;102135.00;5094684;28;20032;-63
2022/05/07 04:06:40;;;;;;;28.02;17.88;;;;;;;12.52;87.21;102130.63;5094204;28;20115;-65
2022/05/07 04:09:05;;;;;;;28.77;18.73;;;;;;;12.53;87.28;102135.88;5094090;28;20024;-65
2022/05/07 04:11:30;;;;;;;27.80;18.58;;;;;;;12.52;87.03;102130.63;5094337;28;20040;-66
2022/05/07 04:13:56;;;;;;;24.52;18.20;;;;;;;12.48;87.45;102132.38;5094458;28;20036;-65
2022/05/07 04:16:21;;;;;;;30.20;20.48;;;;;;;12.53;86.50;102148.13;5094414;28;20028;-63
2022/05/07 04:18:46;;;;;;;27.58;20.05;;;;;;;12.54;86.84;102148.16;5094423;28;20363;-64
2022/05/07 04:21:11;;;;;;;33.00;22.52;;;;;;;12.49;86.42;102143.75;5094827;28;20101;-64
2022/05/07 04:23:37;;;;;;;31.33;21.38;;;;;;;12.49;87.55;102146.38;5107341;28;20020;-65
2022/05/07 04:26:02;;;;;;;30.95;21.17;;;;;;;12.57;87.16;102147.28;5114671;28;20034;-64
2022/05/07 04:28:27;;;;;;;33.92;23.27;;;;;;;12.54;87.10;102139.41;5114944;28;20371;-64
2022/05/07 04:30:54;;;;;;;28.75;22.92;;;;;;;12.59;86.08;102145.53;5114681;28;20054;-63
2022/05/07 04:33:19;;;;;;;33.58;23.25;;;;;;;12.63;86.70;102149.91;5098861;28;20383;-63
2022/05/07 04:35:48;;;;;;;33.67;23.17;;;;;;;12.64;86.58;102146.38;5116869;28;20422;-63
2022/05/07 04:38:13;;;;;;;34.30;23.73;;;;;;;12.68;86.55;102147.25;5116838;28;20059;-65
2022/05/07 04:40:38;;;;;;;28.30;22.77;;;;;;;12.67;86.68;102141.13;5118200;28;20055;-65
2022/05/07 04:43:04;;;;;;;36.03;24.52;;;;;;;12.73;85.47;102146.38;5118354;28;20031;-65
2022/05/07 04:45:29;;;;;;;32.03;23.52;;;;;;;12.79;85.29;102143.75;5118046;28;20038;-64
2022/05/07 04:47:55;;;;;;;32.53;24.40;;;;;;;12.83;85.46;102144.59;5118281;28;20043;-63
2022/05/07 04:50:20;;;;;;;30.40;23.30;;;;;;;12.82;85.69;102151.59;5118237;28;20043;-65
2022/05/07 04:52:45;;;;;;;31.08;23.67;;;;;;;12.88;86.15;102153.34;5118305;28;20376;-65
2022/05/07 04:55:10;;;;;;;32.05;24.13;;;;;;;12.88;86.07;102161.22;5118477;28;20439;-64
2022/05/07 04:57:36;;;;;;;33.30;24.63;;;;;;;12.91;85.78;102155.97;5113536;28;20388;-65
2022/05/07 05:00:04;;;;;;;38.53;25.75;;;;;;;12.95;85.24;102154.22;5118019;28;20028;-66
2022/05/07 05:02:29;;;;;;;32.22;25.73;;;;;;;13.04;84.56;102160.31;5117870;28;20076;-64
2022/05/07 05:04:54;;;;;;;36.88;24.58;;;;;;;13.16;84.25;102162.09;5117756;28;20032;-63
2022/05/07 05:07:20;;;;;;;38.80;26.55;;;;;;;13.20;83.98;102161.19;5117864;28;20034;-64
2022/05/07 05:09:45;;;;;;;33.85;25.00;;;;;;;13.18;84.32;102145.41;5116647;28;20564;-64
2022/05/07 05:12:10;;;;;;;34.70;25.83;;;;;;;13.33;84.50;102169.94;5116229;28;20038;-64
2022/05/07 05:17:20;;;;;;;35.97;26.98;;;;;;;13.27;82.74;102181.31;5116524;28;20449;-64
2022/05/07 05:19:45;;;;;;;37.95;26.35;;;;;;;13.26;82.50;102168.19;5115967;28;20028;-64
2022/05/07 05:22:11;;;;;;;48.85;30.42;;;;;;;13.19;85.46;102170.81;5112875;28;20032;-64
2022/05/07 05:24:36;;;;;;;42.28;29.25;;;;;;;13.34;84.76;102182.16;5106194;28;20042;-66
2022/05/07 05:27:01;;;;;;;40.88;30.00;;;;;;;13.31;84.64;102188.34;5104591;28;20108;-67
2022/05/07 05:29:27;;;;;;;39.15;29.52;;;;;;;13.43;85.61;102196.16;5106758;28;20032;-66
2022/05/07 05:31:52;;;;;;;41.22;30.15;;;;;;;13.40;84.40;102190.91;5115820;28;20460;-67
2022/05/07 05:34:17;;;;;;;41.60;30.23;;;;;;;13.45;86.30;102199.66;5115721;28;20031;-66
2022/05/07 05:36:42;;;;;;;41.13;30.88;;;;;;;13.43;85.92;102197.91;5107461;28;20363;-67
2022/05/07 05:39:08;;;;;;;42.85;32.85;;;;;;;13.45;82.58;102204.06;5096559;28;20042;-65
2022/05/07 05:41:35;;;;;;;41.58;31.83;;;;;;;13.48;82.07;102212.81;5096874;28;20028;-66
2022/05/07 05:44:01;;;;;;;45.88;33.00;;;;;;;13.50;82.58;102200.53;5096763;28;20066;-68
2022/05/07 05:46:27;;;;;;;47.28;34.45;;;;;;;13.48;82.81;102202.28;5096742;28;20032;-68
2022/05/07 05:48:53;;;;;;;46.83;35.13;;;;;;;13.47;84.46;102197.03;5097192;28;20093;-67
2022/05/07 05:51:18;;;;;;;46.97;33.85;;;;;;;13.63;83.38;102203.09;5109926;28;20035;-68
2022/05/07 05:53:43;;;;;;;46.63;34.97;;;;;;;13.74;83.68;102203.94;5116969;28;20046;-67
2022/05/07 05:56:08;;;;;;;51.00;34.47;;;;;;;13.80;83.59;102209.16;5117023;28;20035;-63
2022/05/07 05:58:34;;;;;;;44.92;33.33;;;;;;;13.78;82.69;102205.66;5116856;28;20027;-66
2022/05/07 06:01:01;;;;;;;42.67;32.78;;;;;;;13.90;83.90;102216.13;5116689;28;20066;-65
2022/05/07 06:03:26;;;;;;;41.00;31.60;;;;;;;13.97;81.51;102211.72;5116427;28;20427;-67
2022/05/07 06:05:52;;;;;;;43.03;31.85;;;;;;;13.93;81.48;102190.66;5116580;28;20118;-66
2022/05/07 06:08:17;;;;;;;40.90;30.65;;;;;;;14.03;79.59;102204.63;5116534;28;20031;-65
2022/05/07 06:10:42;;;;;;;38.78;29.48;;;;;;;13.98;79.92;102205.56;5116872;28;20062;-65
2022/05/07 06:13:07;;;;;;;38.30;28.60;;;;;;;14.01;79.50;102201.16;5116531;28;20034;-66
2022/05/07 06:15:33;;;;;;;38.78;29.15;;;;;;;14.07;81.47;102201.13;5116500;28;20032;-65
2022/05/07 06:17:58;;;;;;;37.47;27.60;;;;;;;14.20;79.87;102210.66;5113041;28;20126;-64
2022/05/07 06:20:23;;;;;;;40.03;29.13;;;;;;;14.30;78.60;102216.78;5116373;28;20027;-65
2022/05/07 06:22:48;;;;;;;35.78;27.70;;;;;;;14.37;80.11;102202.69;5116377;28;20027;-66
2022/05/07 06:28:01;;;;;;;37.45;28.73;;;;;;;14.61;78.54;102213.03;5116096;28;20078;-67
2022/05/07 06:30:26;;;;;;;35.55;26.67;;;;;;;14.66;78.08;102218.28;5116389;28;20032;-65
2022/05/07 06:32:52;;;;;;;32.25;26.38;;;;;;;14.60;76.92;102200.75;5115866;28;20031;-67
2022/05/07 06:35:18;;;;;;;30.40;24.42;;;;;;;14.74;76.57;102213.81;5116310;28;20346;-66
2022/05/07 06:37:48;;;;;;;33.65;25.17;;;;;;;14.79;76.05;102214.66;5116364;28;20027;-66
2022/05/07 06:40:14;;;;;;;33.05;23.90;;;;;;;14.88;75.40;102218.97;5116344;28;20036;-66
2022/05/07 06:42:40;;;;;;;35.15;24.83;;;;;;;14.89;75.39;102216.31;5115997;28;20357;-65
2022/05/07 06:45:05;;;;;;;37.70;24.15;;;;;;;14.93;75.90;102219.78;5115830;28;20024;-66
2022/05/07 06:47:31;;;;;;;32.63;23.20;;;;;;;14.96;75.27;102210.09;5116024;28;20107;-66
2022/05/07 06:49:56;;;;;;;35.38;24.08;;;;;;;14.95;76.73;102213.63;5104976;28;20055;-65
2022/05/07 06:52:22;;;;;;;35.33;23.60;;;;;;;15.01;75.17;102217.09;5104148;28;20431;-67
2022/05/07 06:54:47;;;;;;;34.05;24.15;;;;;;;15.02;75.69;102218.84;5103204;28;20055;-66
2022/05/07 06:57:12;;;;;;;36.97;25.58;;;;;;;15.07;74.91;102204.69;5102666;28;20100;-67
2022/05/07 06:59:37;;;;;;;36.40;24.00;;;;;;;15.26;75.40;102213.28;5104476;28;20038;-65
2022/05/07 07:02:03;;;;;;;34.45;25.42;;;;;;;15.40;77.15;102221.97;5102286;28;20032;-67
2022/05/07 07:04:29;;;;;;;35.28;25.58;;;;;;;15.46;74.49;102215.72;5103275;28;20027;-66
2022/05/07 07:06:54;;;;;;;32.50;24.50;;;;;;;15.60;73.14;102216.44;5103942;28;20039;-66
2022/05/07 07:09:19;;;;;;;34.17;24.73;;;;;;;15.66;72.70;102224.31;5102410;28;20024;-67
2022/05/07 07:11:45;;;;;;;38.30;25.20;;;;;;;15.69;72.28;102223.41;5103386;28;20136;-67
2022/05/07 07:14:11;;;;;;;34.13;24.83;;;;;;;15.61;72.23;102221.72;5103215;28;20466;-66
2022/05/07 07:16:36;;;;;;;33.95;24.92;;;;;;;15.61;72.52;102218.19;5100068;28;20176;-68
2022/05/07 07:19:01;;;;;;;35.50;24.10;;;;;;;15.68;72.75;102211.97;5103954;28;20024;-68
2022/05/07 07:21:27;;;;;;;33.55;23.38;;;;;;;15.78;73.36;102224.16;5105120;28;20037;-67
2022/05/07 07:23:52;;;;;;;37.40;23.60;;;;;;;15.78;71.97;102218.00;5105244;28;20443;-68
2022/05/07 07:26:18;;;;;;;34.83;23.88;;;;;;;15.75;73.07;102220.69;5103764;28;20031;-70
2022/05/07 07:28:43;;;;;;;33.47;23.13;;;;;;;15.71;73.17;102205.78;5104022;28;20221;-66
2022/05/07 07:31:09;;;;;;;31.23;22.83;;;;;;;15.79;71.37;102217.97;5103743;28;20032;-68
2022/05/07 07:33:35;;;;;;;32.63;23.63;;;;;;;15.81;70.87;102210.91;5104078;28;20096;-65
2022/05/07 07:36:00;;;;;;;32.65;23.13;;;;;;;15.84;70.90;102215.28;5104283;28;20088;-67
2022/05/07 07:38:26;;;;;;;32.45;22.08;;;;;;;15.84;70.27;102216.16;5102804;28;20060;-68
2022/05/07 07:40:52;;;;;;;33.30;22.58;;;;;;;15.84;71.53;102215.28;5094157;28;20043;-65
2022/05/07 07:43:18;;;;;;;34.33;24.40;;;;;;;15.83;71.31;102211.75;5094207;28;20063;-67
2022/05/07 07:48:30;;;;;;;31.08;22.75;;;;;;;15.98;70.27;102213.31;5094500;28;20051;-64
2022/05/07 07:50:55;;;;;;;34.47;22.40;;;;;;;16.05;70.27;102212.34;5094570;28;20461;-65
2022/05/07 07:53:22;;;;;;;33.17;21.65;;;;;;;16.09;69.80;102214.06;5094466;28;20118;-65
2022/05/07 07:55:48;;;;;;;30.25;21.63;;;;;;;16.17;68.42;102217.44;5094353;28;20110;-65
2022/05/07 07:58:13;;;;;;;30.90;22.20;;;;;;;16.28;68.24;102223.44;5094331;28;20043;-65
2022/05/07 08:00:41;;;;;;;31.92;22.85;;;;;;;16.28;68.34;102210.22;5094390;28;20039;-68
2022/05/07 08:03:15;;;;;;;30.85;21.75;;;;;;;16.47;68.12;102226.66;5094301;28;20035;-68
2022/05/07 08:05:42;;;;;;;32.47;22.08;;;;;;;16.65;67.71;102215.84;5094352;28;20040;-67
2022/05/07 08:13:38;;;;;;;31.17;22.10;;;;;;;17.25;65.06;102206.84;5097988;28;20370;-67
2022/05/07 08:16:04;;;;;;;32.83;21.67;;;;;;;17.55;64.63;102211.53;5097912;28;20040;-68
2022/05/07 08:18:31;;;;;;;30.65;20.98;;;;;;;17.59;63.77;102197.31;5098123;28;20032;-67
2022/05/07 08:20:56;;;;;;;31.13;20.88;;;;;;;17.68;62.97;102206.88;5098005;28;20036;-67
2022/05/07 08:23:22;;;;;;;34.53;21.35;;;;;;;17.78;62.17;102212.84;5098234;28;20032;-67
2022/05/07 08:25:48;;;;;;;31.05;19.27;;;;;;;17.83;61.32;102211.88;5097902;28;20206;-68
2022/05/07 08:28:15;;;;;;;29.83;20.05;;;;;;;17.96;62.12;102215.09;5097796;28;20044;-66
2022/05/07 08:30:41;;;;;;;29.25;19.63;;;;;;;17.97;61.72;102211.56;5097914;28;20354;-64
2022/05/07 08:33:06;;;;;;;29.27;20.25;;;;;;;17.94;61.07;102209.84;5097528;28;20035;-65
2022/05/07 08:35:32;;;;;;;30.13;20.30;;;;;;;17.94;60.78;102219.56;5097706;28;20028;-64
2022/05/07 08:37:57;;;;;;;29.35;19.65;;;;;;;17.92;60.81;102216.06;5097697;28;20462;-65
2022/05/07 08:40:24;;;;;;;27.20;19.70;;;;;;;17.96;61.86;102223.94;5097732;28;20116;-65
2022/05/07 08:42:50;;;;;;;29.17;20.38;;;;;;;17.97;59.36;102222.16;5097276;28;20616;-66
2022/05/07 08:45:15;;;;;;;30.17;20.55;;;;;;;18.06;60.67;102230.75;5097752;28;20040;-67
2022/05/07 08:47:42;;;;;;;31.02;19.92;;;;;;;18.15;60.00;102218.22;5100115;28;20060;-64
2022/05/07 08:50:09;;;;;;;27.92;19.58;;;;;;;18.28;59.91;102219.66;5097408;28;20085;-65
2022/05/07 08:52:41;;;;;;;29.58;19.98;;;;;;;18.45;59.42;102217.50;5097325;28;20119;-67
2022/05/07 08:55:09;;;;;;;32.80;22.23;;;;;;;18.67;57.02;102215.22;5097506;28;20028;-67
2022/05/07 08:57:35;;;;;;;33.50;21.63;;;;;;;19.05;56.71;102208.91;5099867;28;20047;-59
2022/05/07 09:00:00;;;;;;;32.70;21.67;;;;;;;19.60;54.65;102196.78;5117337;28;20165;-65
2022/05/07 09:02:25;;;;;;;32.63;21.52;;;;;;;20.66;52.62;102201.41;5117516;28;20023;-63
2022/05/07 09:04:58;;;;;;;28.57;19.87;;;;;;;21.98;49.63;102208.16;5117420;28;20020;-68
2022/05/07 09:07:23;;;;;;;29.30;20.00;;;;;;;23.26;44.66;102198.31;5106742;28;20278;-68
2022/05/07 09:09:50;;;;;;;28.85;18.58;;;;;;;23.66;43.70;102199.22;5097050;28;20038;-68
2022/05/07 09:12:22;;;;;;;29.92;20.08;;;;;;;23.68;43.71;102198.22;5096819;28;20028;-68
2022/05/07 09:14:48;;;;;;;28.88;19.95;;;;;;;23.21;43.28;102208.34;5096803;28;20031;-68
2022/05/07 09:17:13;;;;;;;29.02;19.00;;;;;;;22.85;44.29;102197.50;5096961;28;20434;-68
2022/05/07 09:19:38;;;;;;;34.77;20.67;;;;;;;22.38;45.28;102194.09;5096571;28;20028;-67
2022/05/07 09:22:05;;;;;;;32.70;20.33;;;;;;;22.04;45.78;102202.59;5097547;28;20273;-59
2022/05/07 09:24:30;;;;;;;27.15;19.58;;;;;;;21.57;47.41;102199.94;5116717;28;20342;-67
2022/05/07 09:26:58;;;;;;;32.22;21.17;;;;;;;21.23;48.89;102192.34;5116751;28;20039;-67
2022/05/07 09:29:27;;;;;;;29.25;20.38;;;;;;;21.11;49.52;102185.66;5116313;28;20516;-67
2022/05/07 09:31:53;;;;;;;27.17;20.38;;;;;;;20.95;48.90;102194.22;5116979;28;20043;-67
2022/05/07 09:37:18;;;;;;;27.98;19.25;;;;;;;21.13;49.60;102185.56;5116827;28;20119;-66
2022/05/07 09:39:47;;;;;;;32.53;19.75;;;;;;;21.25;50.72;102193.16;5114438;28;20034;-66
2022/05/07 09:42:16;;;;;;;28.38;19.48;;;;;;;21.45;49.13;102201.28;5115615;28;20423;-61
2022/05/07 09:44:43;;;;;;;28.42;18.50;;;;;;;21.47;49.77;102199.41;5116711;28;20031;-66
2022/05/07 09:47:12;;;;;;;30.67;20.20;;;;;;;21.52;49.00;102194.78;5116765;28;20032;-65
2022/05/07 09:50:19;;;;;;;32.15;20.83;;;;;;;21.73;48.58;102195.78;5116638;28;20023;-67
2022/05/07 09:52:25;;;;;;;31.85;22.25;;;;;;;21.71;47.56;102200.28;5115465;28;20451;-69
2022/05/07 09:57:55;;;;;;;33.38;22.65;;;;;;;21.61;49.82;102200.72;5053595;28;20147;-67
2022/05/07 10:00:20;;;;;;;31.88;21.38;;;;;;;21.53;48.11;102195.66;5100485;28;20046;-67
2022/05/07 10:03:09;;;;;;;32.55;21.25;;;;;;;21.50;49.89;102196.63;5116535;28;20362;-66
2022/05/07 10:05:46;;;;;;;32.83;21.92;;;;;;;21.49;48.65;102200.22;5107571;28;20032;-67
2022/05/07 10:08:37;;;;;;;34.10;22.80;;;;;;;21.31;48.57;102200.03;5095958;28;20035;-66
2022/05/07 10:11:04;;;;;;;32.97;22.40;;;;;;;21.37;48.30;102192.69;5098165;28;20517;-67
2022/05/07 10:13:29;;;;;;;29.67;20.90;;;;;;;21.42;47.13;102185.41;5103098;28;20078;-67
2022/05/07 10:16:03;;;;;;;29.23;19.13;;;;;;;21.49;48.32;102202.88;5116048;28;20455;-67
2022/05/07 10:18:43;;;;;;;27.50;18.90;;;;;;;21.53;47.27;102193.00;5102788;28;20059;-68
2022/05/07 10:21:18;;;;;;;30.90;19.23;;;;;;;21.76;48.93;102186.81;5115462;28;20362;-67
2022/05/07 10:23:54;;;;;;;28.17;18.02;;;;;;;22.04;47.28;102191.94;5108696;28;20047;-67
2022/05/07 10:26:23;;;;;;;22.38;17.05;;;;;;;22.06;44.24;102185.63;5095506;28;20036;-66
2022/05/07 10:28:48;;;;;;;23.02;16.30;;;;;;;22.12;45.03;102181.84;5095583;28;20051;-68
2022/05/07 10:31:25;;;;;;;24.85;17.40;;;;;;;22.20;45.75;102185.06;5097737;28;20028;-67
2022/05/07 10:33:51;;;;;;;21.45;15.07;;;;;;;22.17;44.59;102186.03;5095527;28;20024;-68
2022/05/07 10:36:18;;;;;;;24.38;15.60;;;;;;;22.18;43.11;102193.13;5095148;28;20059;-68
2022/05/07 10:38:46;;;;;;;21.65;13.27;;;;;;;22.39;44.73;102179.84;5095417;28;20347;-59
2022/05/07 10:41:17;;;;;;;21.95;14.02;;;;;;;22.61;44.57;102174.47;5095652;28;20028;-67
2022/05/07 10:43:47;;;;;;;22.95;14.55;;;;;;;22.68;42.64;102176.84;5095257;28;20073;-66
2022/05/07 10:46:19;;;;;;;20.08;14.80;;;;;;;22.52;41.54;102183.72;5095137;28;20039;-67
2022/05/07 10:48:53;;;;;;;22.98;15.25;;;;;;;22.44;43.37;102173.41;5094868;28;20036;-67
2022/05/07 10:51:30;;;;;;;19.25;13.45;;;;;;;22.72;44.85;102170.41;5095107;28;20028;-67
2022/05/07 10:53:59;;;;;;;17.58;10.93;;;;;;;22.86;40.97;102167.16;5110234;28;20447;-69
2022/05/07 10:56:24;;;;;;;19.83;11.95;;;;;;;22.66;41.46;102159.16;5107307;28;20059;-69
2022/05/07 10:58:51;;;;;;;17.40;9.88;;;;;;;22.45;40.75;102169.78;5115667;28;20027;-68
2022/05/07 11:01:19;;;;;;;13.60;8.80;;;;;;;22.30;40.51;102166.91;5115135;28;20423;-69
2022/05/07 11:03:44;;;;;;;14.50;9.93;;;;;;;22.24;41.03;102168.00;5115445;28;20093;-68
2022/05/07 11:06:10;;;;;;;16.02;10.30;;;;;;;22.42;41.84;102174.38;5110375;28;20061;-67
2022/05/07 11:08:49;;;;;;;20.58;10.30;;;;;;;22.71;43.27;102170.47;5114960;28;20078;-67
2022/05/07 11:11:16;;;;;;;20.42;11.43;;;;;;;22.92;41.21;102158.91;5095382;28;20065;-69
2022/05/07 11:13:48;;;;;;;16.13;10.30;;;;;;;22.91;40.59;102141.16;5095033;28;20020;-68
2022/05/07 11:16:16;;;;;;;17.20;11.15;;;;;;;22.67;40.39;102155.56;5095051;28;20032;-69
2022/05/07 11:18:45;;;;;;;15.93;10.55;;;;;;;22.52;41.41;102149.03;5094964;28;20043;-69
2022/05/07 11:21:11;;;;;;;16.77;9.45;;;;;;;22.82;41.22;102158.44;5094642;28;20541;-70
2022/05/07 11:23:36;;;;;;;17.77;10.35;;;;;;;22.94;40.47;102154.38;5097196;28;20035;-67
2022/05/07 11:26:17;;;;;;;20.23;8.68;;;;;;;23.01;42.29;102153.19;5115222;28;20027;-67
2022/05/07 11:28:44;;;;;;;20.02;9.75;;;;;;;22.73;41.64;102149.94;5111150;28;20569;-67
2022/05/07 11:31:12;;;;;;;14.52;9.63;;;;;;;22.69;42.01;102153.66;5094701;28;20149;-68
2022/05/07 11:33:38;;;;;;;19.70;11.98;;;;;;;22.29;43.79;102168.69;5076815;28;20031;-66
2022/05/07 11:36:08;;;;;;;15.48;10.27;;;;;;;22.15;45.64;102160.41;5094901;28;20054;-66